Time;durP1;ratioP1;P1;durP2;ratioP2;P2;SDS_P1;SDS_P2;PMS_P1;PMS_P2;Temp;Humidity;BMP_temperature;BMP_pressure;BME280_temperature;BME280_humidity;BME280_pressure;Samples;Min_cycle;Max_cycle;Signal;HPM_P1;HPM_P2
2023/05/27 00:00:08;;;;;;;6.90;6.20;;;;;;;14.28;100.00;100705.77;105690;1259;62055;-42
2023/05/27 00:02:36;;;;;;;8.00;6.50;;;;;;;14.27;100.00;100700.58;105776;1254;60546;-42
2023/05/27 00:05:03;;;;;;;10.70;5.70;;;;;;;14.25;100.00;100696.83;105734;1254;73882;-44
2023/05/27 00:07:31;;;;;;;7.20;6.20;;;;;;;14.24;100.00;100694.44;105794;1259;63987;-42
2023/05/27 00:09:58;;;;;;;7.30;6.60;;;;;;;14.22;100.00;100696.39;105814;1254;72615;-42
2023/05/27 00:12:25;;;;;;;17.70;7.00;;;;;;;14.21;100.00;100696.59;105699;1258;61646;-42
2023/05/27 00:14:52;;;;;;;8.80;6.60;;;;;;;14.21;100.00;100696.09;105699;1253;60412;-43
2023/05/27 00:17:19;;;;;;;9.70;6.80;;;;;;;14.20;100.00;100696.09;105763;1255;73740;-42
2023/05/27 00:19:49;;;;;;;7.20;6.20;;;;;;;14.20;100.00;100690.02;105739;1254;65422;-42
2023/05/27 00:22:17;;;;;;;15.10;7.20;;;;;;;14.20;100.00;100687.79;105782;1258;72472;-42
2023/05/27 00:24:44;;;;;;;7.90;7.00;;;;;;;14.21;100.00;100680.81;105716;1258;61856;-42
2023/05/27 00:27:11;;;;;;;15.20;7.10;;;;;;;14.23;100.00;100680.75;105782;1257;60540;-42
2023/05/27 00:29:38;;;;;;;12.30;7.20;;;;;;;14.26;100.00;100683.07;105780;1257;73814;-45
2023/05/27 00:32:05;;;;;;;8.10;6.70;;;;;;;14.28;100.00;100680.77;105574;1259;65327;-45
2023/05/27 00:34:34;;;;;;;7.90;6.90;;;;;;;14.30;100.00;100681.41;105714;1259;72407;-43
2023/05/27 00:37:01;;;;;;;7.40;6.70;;;;;;;14.30;100.00;100677.41;105743;1254;61971;-51
2023/05/27 00:39:28;;;;;;;12.40;7.00;;;;;;;14.31;100.00;100674.44;105710;1254;60454;-43
2023/05/27 00:41:55;;;;;;;7.70;6.90;;;;;;;14.31;100.00;100675.47;105616;1259;74407;-42
2023/05/27 00:44:22;;;;;;;9.50;7.50;;;;;;;14.33;100.00;100672.48;105548;1254;65621;-43
2023/05/27 00:46:49;;;;;;;9.20;7.20;;;;;;;14.33;100.00;100672.64;105652;1254;72679;-42
2023/05/27 00:49:17;;;;;;;14.60;7.00;;;;;;;14.31;100.00;100670.63;105604;1259;61671;-43
2023/05/27 00:51:44;;;;;;;8.00;7.20;;;;;;;14.29;100.00;100669.66;105640;1254;60419;-43
2023/05/27 00:54:11;;;;;;;13.30;6.70;;;;;;;14.26;100.00;100669.36;105645;1254;73796;-42
2023/05/27 00:56:39;;;;;;;12.50;6.70;;;;;;;14.23;100.00;100662.67;105759;1258;66023;-42
2023/05/27 00:59:05;;;;;;;10.10;6.90;;;;;;;14.20;100.00;100665.90;105651;1254;71601;-42
2023/05/27 01:01:36;;;;;;;11.30;7.00;;;;;;;14.17;100.00;100657.69;105685;1254;61996;-43
2023/05/27 01:04:03;;;;;;;16.40;7.30;;;;;;;14.15;100.00;100654.79;105794;1254;60418;-43
2023/05/27 01:06:59;;;;;;;14.60;7.40;;;;;;;14.14;100.00;100653.79;105618;1254;73607;-43
2023/05/27 01:09:30;;;;;;;7.60;6.90;;;;;;;14.11;100.00;100647.94;105629;1254;65452;-42
2023/05/27 01:12:24;;;;;;;12.30;7.50;;;;;;;14.11;100.00;100645.52;105653;1260;72817;-42
2023/05/27 01:14:51;;;;;;;11.10;7.10;;;;;;;14.13;100.00;100642.35;105685;1254;61921;-43
2023/05/27 01:17:19;;;;;;;10.10;6.90;;;;;;;14.15;100.00;100643.34;105674;1254;60444;-42
2023/05/27 01:19:47;;;;;;;11.00;6.90;;;;;;;14.14;100.00;100643.00;105649;1259;73812;-43
2023/05/27 01:22:14;;;;;;;7.40;6.30;;;;;;;14.14;100.00;100641.12;105608;1259;65231;-43
2023/05/27 01:24:41;;;;;;;7.70;7.00;;;;;;;14.14;100.00;100642.14;105710;1259;71309;-43
2023/05/27 01:27:11;;;;;;;9.10;7.70;;;;;;;14.15;100.00;100639.16;105720;1253;61680;-46
2023/05/27 01:29:42;;;;;;;14.00;7.60;;;;;;;14.15;100.00;100639.52;105668;1259;60514;-44
2023/05/27 01:32:15;;;;;;;9.40;7.40;;;;;;;14.13;100.00;100636.80;105696;1259;73850;-44
2023/05/27 01:34:57;;;;;;;14.30;7.40;;;;;;;14.10;100.00;100638.10;105764;1254;64403;-43
2023/05/27 01:37:25;;;;;;;9.30;7.20;;;;;;;14.09;100.00;100634.84;105739;1258;72636;-43
2023/05/27 01:39:52;;;;;;;10.80;7.60;;;;;;;14.07;100.00;100638.19;105740;1255;62113;-43
2023/05/27 01:42:19;;;;;;;13.00;8.00;;;;;;;14.06;100.00;100637.70;105611;1255;60457;-43
2023/05/27 01:44:47;;;;;;;10.80;7.80;;;;;;;14.04;100.00;100637.05;105760;1257;73882;-42
2023/05/27 01:47:14;;;;;;;10.80;7.30;;;;;;;14.07;100.00;100640.09;105713;1259;65427;-43
2023/05/27 01:49:41;;;;;;;14.50;7.60;;;;;;;14.07;100.00;100637.67;105737;1259;72633;-43
2023/05/27 01:52:08;;;;;;;13.00;8.40;;;;;;;14.05;100.00;100635.11;105648;1259;61738;-43
2023/05/27 01:54:36;;;;;;;11.50;7.90;;;;;;;14.06;100.00;100632.15;105672;1253;60495;-43
2023/05/27 01:57:06;;;;;;;10.20;7.60;;;;;;;14.08;100.00;100630.19;105654;1259;73507;-43
2023/05/27 01:59:33;;;;;;;10.00;7.90;;;;;;;14.08;100.00;100631.02;105648;1259;65275;-43
2023/05/27 02:02:00;;;;;;;12.20;9.20;;;;;;;14.09;100.00;100630.33;105638;1260;72665;-43
2023/05/27 02:04:27;;;;;;;11.30;8.50;;;;;;;14.08;100.00;100627.40;105661;1259;62045;-43
2023/05/27 02:06:55;;;;;;;9.50;8.00;;;;;;;14.07;100.00;100628.46;105675;1254;61210;-43
2023/05/27 02:09:22;;;;;;;19.80;8.70;;;;;;;14.07;100.00;100634.37;105700;1254;73529;-43
2023/05/27 02:11:49;;;;;;;13.90;8.10;;;;;;;14.07;100.00;100635.57;105659;1260;65445;-43
2023/05/27 02:14:16;;;;;;;15.40;8.30;;;;;;;14.07;100.00;100639.21;105720;1257;72492;-43
2023/05/27 02:16:44;;;;;;;13.10;9.00;;;;;;;14.07;100.00;100637.31;105648;1260;62362;-43
2023/05/27 02:19:11;;;;;;;15.10;9.50;;;;;;;14.08;100.00;100639.02;105609;1253;60737;-43
2023/05/27 02:21:37;;;;;;;17.90;9.40;;;;;;;14.11;100.00;100636.70;105660;1254;73759;-43
2023/05/27 02:24:05;;;;;;;16.30;9.30;;;;;;;14.13;100.00;100639.39;105660;1257;66575;-43
2023/05/27 02:26:32;;;;;;;18.60;8.90;;;;;;;14.15;100.00;100638.81;105612;1259;72644;-43
2023/05/27 02:29:00;;;;;;;18.90;7.70;;;;;;;14.18;100.00;100637.50;105713;1254;62375;-43
2023/05/27 02:31:28;;;;;;;10.60;7.50;;;;;;;14.21;100.00;100633.95;105629;1254;60412;-43
2023/05/27 02:33:55;;;;;;;13.60;7.10;;;;;;;14.26;100.00;100633.63;105679;1259;73802;-40
2023/05/27 02:36:23;;;;;;;18.30;8.10;;;;;;;14.29;100.00;100630.24;105696;1259;65360;-44
2023/05/27 02:38:50;;;;;;;25.40;8.30;;;;;;;14.32;100.00;100630.66;105732;1257;72614;-43
2023/05/27 02:41:17;;;;;;;9.70;7.50;;;;;;;14.36;100.00;100632.45;105662;1254;62032;-43
2023/05/27 02:43:45;;;;;;;19.10;7.90;;;;;;;14.40;100.00;100637.89;105681;1257;60453;-43
2023/05/27 02:46:12;;;;;;;13.20;7.70;;;;;;;14.43;100.00;100636.23;105508;1254;235692;-42
2023/05/27 02:49:39;;;;;;;9.20;8.00;;;;;;;14.51;100.00;100648.83;102688;1296;600133;-42
2023/05/27 02:52:06;;;;;;;17.00;8.00;;;;;;;14.53;100.00;100645.11;104809;1273;60411;-42
2023/05/27 02:54:35;;;;;;;13.80;8.10;;;;;;;14.58;100.00;100647.39;104792;1272;59290;-42
2023/05/27 02:57:03;;;;;;;10.20;8.10;;;;;;;14.64;100.00;100644.92;104780;1273;71133;-43
2023/05/27 02:59:31;;;;;;;13.90;8.50;;;;;;;14.71;100.00;100647.35;104831;1272;65404;-46
2023/05/27 03:01:58;;;;;;;14.80;7.40;;;;;;;14.78;100.00;100644.50;104474;1272;71739;-41
2023/05/27 03:04:26;;;;;;;8.90;7.30;;;;;;;14.88;100.00;100643.84;104700;1270;204227;-46
2023/05/27 03:06:54;;;;;;;13.10;7.90;;;;;;;15.00;100.00;100639.98;105051;1269;59285;-44
2023/05/27 03:09:22;;;;;;;12.90;7.60;;;;;;;15.08;100.00;100639.00;105076;1271;71033;-42
2023/05/27 03:11:49;;;;;;;9.90;7.80;;;;;;;15.17;100.00;100632.10;105045;1271;64020;-42
2023/05/27 03:14:19;;;;;;;10.10;7.30;;;;;;;15.26;100.00;100634.56;105514;1262;71404;-42
2023/05/27 03:16:47;;;;;;;11.60;8.20;;;;;;;15.32;100.00;100633.50;105425;1264;60768;-42
2023/05/27 03:19:15;;;;;;;9.00;7.80;;;;;;;15.36;100.00;100634.20;105494;1262;59580;-42
2023/05/27 03:21:43;;;;;;;16.90;7.60;;;;;;;15.44;100.00;100633.40;105496;1257;71791;-43
2023/05/27 03:24:13;;;;;;;9.50;7.50;;;;;;;15.53;100.00;100635.00;105483;1263;64084;-42
2023/05/27 03:26:41;;;;;;;19.30;8.70;;;;;;;15.60;100.00;100626.77;105544;1260;71666;-42
2023/05/27 03:29:09;;;;;;;9.40;7.90;;;;;;;15.69;100.00;100627.10;105499;1260;60696;-42
2023/05/27 03:31:37;;;;;;;8.60;7.40;;;;;;;15.83;100.00;100629.05;105570;1257;59546;-42
2023/05/27 03:34:08;;;;;;;8.30;7.00;;;;;;;15.98;100.00;100629.73;105564;1258;71998;-42
2023/05/27 03:36:38;;;;;;;10.70;6.40;;;;;;;16.13;100.00;100630.73;105450;1257;65365;-42
2023/05/27 03:39:06;;;;;;;9.90;6.50;;;;;;;16.28;100.00;100634.48;105608;1258;72719;-42
2023/05/27 03:41:35;;;;;;;10.10;5.80;;;;;;;16.47;100.00;100642.45;105521;1258;61799;-43
2023/05/27 03:44:03;;;;;;;8.30;5.90;;;;;;;16.70;100.00;100642.55;105555;1257;59959;-43
2023/05/27 03:46:31;;;;;;;9.10;5.70;;;;;;;16.96;100.00;100652.51;105597;1263;72124;-43
2023/05/27 03:48:59;;;;;;;8.70;6.00;;;;;;;17.29;100.00;100657.38;105482;1257;65143;-43
2023/05/27 03:51:27;;;;;;;7.20;5.00;;;;;;;17.63;100.00;100661.48;105593;1260;71463;-43
2023/05/27 03:53:55;;;;;;;6.70;5.30;;;;;;;17.93;100.00;100664.90;105265;1260;60027;-43
2023/05/27 03:56:22;;;;;;;9.50;5.20;;;;;;;18.19;100.00;100684.48;105471;1263;60432;-43
2023/05/27 03:58:50;;;;;;;6.20;4.30;;;;;;;18.41;100.00;100708.63;105610;1257;73025;-44
2023/05/27 04:01:20;;;;;;;12.10;4.40;;;;;;;18.71;100.00;100742.34;105552;1257;64364;-43
2023/05/27 04:03:48;;;;;;;5.80;4.40;;;;;;;19.04;100.00;100783.96;105479;1258;71379;-44
2023/05/27 04:06:16;;;;;;;27.00;5.30;;;;;;;19.30;100.00;100846.55;105577;1257;59734;-43
2023/05/27 04:08:44;;;;;;;5.50;4.00;;;;;;;19.50;100.00;100917.84;105562;1263;60671;-41
2023/05/27 04:11:14;;;;;;;7.40;4.10;;;;;;;19.58;100.00;101003.03;105450;1263;70705;-44
2023/05/27 04:13:42;;;;;;;12.80;3.80;;;;;;;19.68;100.00;101036.00;105557;1263;63033;-44
2023/05/27 04:16:10;;;;;;;5.30;4.20;;;;;;;19.86;100.00;100994.52;105537;1258;71422;-44
2023/05/27 04:18:38;;;;;;;4.30;3.90;;;;;;;20.06;100.00;100872.55;105559;1257;60580;-45
2023/05/27 04:21:05;;;;;;;5.40;3.90;;;;;;;20.16;100.00;100691.27;105567;1257;59550;-43
2023/05/27 04:23:33;;;;;;;5.00;3.50;;;;;;;20.27;100.00;100543.66;105533;1263;73000;-42
2023/05/27 04:26:00;;;;;;;13.70;3.80;;;;;;;20.40;100.00;100415.55;105573;1263;64371;-42
2023/05/27 04:28:35;;;;;;;8.50;3.40;;;;;;;20.63;100.00;100356.67;105588;1257;72707;-42
2023/05/27 04:31:02;;;;;;;11.90;4.00;;;;;;;20.95;100.00;100295.55;105560;1257;60125;-43
2023/05/27 04:33:37;;;;;;;3.80;3.40;;;;;;;21.15;100.00;100207.49;105547;1257;60055;-43
2023/05/27 04:36:06;;;;;;;9.90;4.00;;;;;;;21.28;100.00;100177.48;105451;1263;72978;-43
2023/05/27 04:38:45;;;;;;;5.80;3.50;;;;;;;21.52;100.00;100180.05;105519;1258;64023;-43
2023/05/27 04:41:12;;;;;;;8.50;3.40;;;;;;;21.64;100.00;100181.89;105579;1257;71391;-43
2023/05/27 04:44:17;;;;;;;4.40;3.20;;;;;;;21.76;100.00;100192.14;105482;1260;59739;-44
2023/05/27 04:46:47;;;;;;;9.60;4.10;;;;;;;21.78;100.00;100207.44;105650;1256;59582;-44
2023/05/27 04:49:15;;;;;;;5.00;3.40;;;;;;;21.78;100.00;100226.91;105533;1257;71879;-42
2023/05/27 04:51:44;;;;;;;3.60;3.20;;;;;;;21.80;100.00;100237.50;105582;1258;65177;-42
2023/05/27 04:54:13;;;;;;;6.10;2.90;;;;;;;21.89;100.00;100256.25;105566;1257;71673;-43
2023/05/27 04:56:40;;;;;;;12.60;2.90;;;;;;;21.96;100.00;100267.50;105564;1257;59679;-43
2023/05/27 04:59:16;;;;;;;4.10;3.00;;;;;;;22.06;100.00;100268.42;105577;1261;59695;-43
2023/05/27 05:04:32;;;;;;;5.50;2.60;;;;;;;22.47;100.00;100291.95;105566;1257;65269;-43
2023/05/27 05:07:03;;;;;;;4.60;3.20;;;;;;;22.69;100.00;100304.78;105546;1257;72326;-42
2023/05/27 05:09:32;;;;;;;6.00;2.90;;;;;;;23.10;100.00;100301.49;105462;1260;59737;-43
2023/05/27 05:12:08;;;;;;;3.50;2.50;;;;;;;23.56;100.00;100331.73;105569;1257;60111;-43
2023/05/27 05:14:38;;;;;;;9.00;2.60;;;;;;;23.74;100.00;100378.68;105573;1263;73474;-43
2023/05/27 05:17:06;;;;;;;4.60;2.40;;;;;;;23.87;100.00;100377.20;105697;1259;63920;-43
2023/05/27 05:19:33;;;;;;;3.40;2.50;;;;;;;24.00;100.00;100398.61;105689;1257;72596;-44
2023/05/27 05:22:01;;;;;;;3.10;2.70;;;;;;;24.16;100.00;100405.50;105870;1257;60887;-43
2023/05/27 05:24:29;;;;;;;2.30;2.20;;;;;;;24.23;100.00;100426.63;105687;1254;60018;-43
2023/05/27 05:26:56;;;;;;;3.40;2.10;;;;;;;24.20;100.00;100444.66;105711;1259;71826;-43
2023/05/27 05:29:25;;;;;;;2.50;2.10;;;;;;;24.02;100.00;100479.33;105870;1257;65129;-45
2023/05/27 05:31:53;;;;;;;3.70;2.10;;;;;;;23.91;100.00;100501.63;105595;1257;71680;-42
2023/05/27 05:34:21;;;;;;;5.90;2.60;;;;;;;23.86;100.00;100511.69;105800;1254;59736;-43
2023/05/27 05:36:49;;;;;;;12.00;2.90;;;;;;;23.87;100.00;100515.97;105798;1252;59539;-46
2023/05/27 05:39:17;;;;;;;7.50;2.60;;;;;;;23.86;100.00;100513.98;105803;1254;73049;-43
2023/05/27 05:41:47;;;;;;;3.50;2.00;;;;;;;23.81;100.00;100502.30;105727;1253;64113;-43
2023/05/27 05:44:17;;;;;;;2.60;2.40;;;;;;;23.90;100.00;100505.27;105917;1257;72690;-43
2023/05/27 05:46:45;;;;;;;5.00;2.70;;;;;;;24.02;100.00;100496.93;105874;1255;59730;-43
2023/05/27 05:49:13;;;;;;;4.50;3.00;;;;;;;24.07;100.00;100500.95;105697;1253;59985;-42
2023/05/27 05:51:43;;;;;;;4.30;2.70;;;;;;;24.13;100.00;100508.70;105655;1259;72150;-42
2023/05/27 05:54:11;;;;;;;6.30;2.70;;;;;;;24.17;100.00;100503.27;105734;1253;64126;-42
2023/05/27 05:56:43;;;;;;;7.30;2.80;;;;;;;24.18;100.00;100509.91;105665;1257;71515;-42
2023/05/27 05:59:12;;;;;;;4.20;2.60;;;;;;;24.11;100.00;100513.42;105685;1258;60127;-43
2023/05/27 06:01:39;;;;;;;2.80;2.30;;;;;;;23.95;100.00;100503.27;105693;1254;59997;-44
2023/05/27 06:04:07;;;;;;;2.90;2.60;;;;;;;23.75;100.00;100503.66;105636;1253;71800;-46
2023/05/27 06:06:39;;;;;;;7.90;2.20;;;;;;;23.74;100.00;100506.52;105655;1253;64035;-43
2023/05/27 06:09:36;;;;;;;5.70;2.50;;;;;;;23.89;100.00;100511.13;105571;1257;72637;-44
2023/05/27 06:12:07;;;;;;;5.80;2.30;;;;;;;24.07;100.00;100507.69;105651;1253;59731;-42
2023/05/27 06:14:40;;;;;;;3.60;2.30;;;;;;;24.36;100.00;100508.52;105690;1258;59705;-42
2023/05/27 06:17:09;;;;;;;5.50;2.10;;;;;;;24.65;100.00;100502.30;105632;1257;73059;-43
2023/05/27 06:19:36;;;;;;;2.90;2.20;;;;;;;24.99;91.71;100488.05;105699;1259;65220;-44
2023/05/27 06:22:05;;;;;;;4.40;1.90;;;;;;;25.22;85.28;100495.91;105674;1254;72661;-44
2023/05/27 06:24:49;;;;;;;6.90;2.40;;;;;;;25.43;78.27;100481.93;105627;1258;59723;-43
2023/05/27 06:27:23;;;;;;;3.10;2.10;;;;;;;25.37;72.50;100475.51;105674;1253;60051;-42
2023/05/27 06:29:51;;;;;;;2.60;2.40;;;;;;;25.22;77.11;100517.87;105689;1259;72060;-43
2023/05/27 06:32:28;;;;;;;5.20;2.60;;;;;;;25.06;79.37;100522.29;105688;1254;64042;-44
2023/05/27 06:34:56;;;;;;;5.60;2.30;;;;;;;24.96;77.72;100522.30;105696;1260;72645;-44
2023/05/27 06:37:24;;;;;;;2.20;2.10;;;;;;;24.80;82.16;100535.71;105736;1253;60019;-42
2023/05/27 06:39:51;;;;;;;5.80;2.30;;;;;;;24.57;90.50;100553.66;105648;1253;59539;-44
2023/05/27 06:42:19;;;;;;;3.40;2.50;;;;;;;24.53;100.00;100563.84;105673;1260;73081;-44
2023/05/27 06:45:04;;;;;;;4.70;2.50;;;;;;;24.43;97.80;100537.23;105685;1253;64395;-44
2023/05/27 06:47:32;;;;;;;3.40;2.40;;;;;;;24.22;100.00;100555.58;105718;1259;72639;-44
2023/05/27 06:50:00;;;;;;;3.70;2.40;;;;;;;24.08;100.00;100554.50;105664;1259;59988;-44
2023/05/27 06:52:28;;;;;;;3.30;2.60;;;;;;;23.87;100.00;100549.84;105839;1257;59606;-44
2023/05/27 06:55:18;;;;;;;2.80;2.60;;;;;;;23.76;100.00;100540.40;105642;1256;73022;-44
2023/05/27 06:58:00;;;;;;;8.30;3.00;;;;;;;23.77;100.00;100523.05;105796;1254;63630;-45
2023/05/27 07:00:47;;;;;;;3.90;3.10;;;;;;;23.72;100.00;100491.89;105787;1254;72645;-43
2023/05/27 07:03:29;;;;;;;5.20;2.90;;;;;;;23.69;100.00;100474.67;105775;1252;61263;-43
2023/05/27 07:05:57;;;;;;;2.70;2.40;;;;;;;23.77;100.00;100461.92;105890;1253;60344;-43
2023/05/27 07:08:26;;;;;;;6.90;3.00;;;;;;;23.95;100.00;100447.23;105813;1253;73792;-43
2023/05/27 07:11:21;;;;;;;4.30;3.00;;;;;;;24.32;100.00;100431.77;105869;1257;63957;-42
2023/05/27 07:13:49;;;;;;;2.80;2.60;;;;;;;24.66;100.00;100446.86;105891;1254;71695;-42
2023/05/27 07:16:19;;;;;;;4.90;2.90;;;;;;;25.07;100.00;100456.17;105825;1253;60516;-43
2023/05/27 07:18:47;;;;;;;4.70;3.00;;;;;;;25.29;100.00;100465.34;105857;1253;60465;-42
2023/05/27 07:21:15;;;;;;;6.00;3.00;;;;;;;25.40;100.00;100475.65;105674;1254;72645;-42
2023/05/27 07:23:42;;;;;;;5.20;2.80;;;;;;;25.55;100.00;100482.58;105712;1254;63957;-43
2023/05/27 07:26:28;;;;;;;3.60;2.70;;;;;;;25.84;100.00;100482.70;105815;1254;72773;-43
2023/05/27 07:28:59;;;;;;;2.80;2.50;;;;;;;26.33;100.00;100474.08;105669;1254;60550;-43
2023/05/27 07:31:47;;;;;;;8.80;3.00;;;;;;;26.92;93.40;100461.03;105830;1256;60428;-43
2023/05/27 07:34:16;;;;;;;6.50;2.80;;;;;;;27.32;74.22;100424.81;105820;1257;72892;-43
2023/05/27 07:36:44;;;;;;;4.50;2.90;;;;;;;27.45;66.11;100382.23;105824;1256;65356;-44
2023/05/27 07:39:12;;;;;;;4.00;2.50;;;;;;;27.38;64.33;100404.44;105911;1253;72587;-43
2023/05/27 07:41:40;;;;;;;4.40;2.50;;;;;;;27.31;63.88;100420.34;105758;1254;60418;-43
2023/05/27 07:44:08;;;;;;;9.30;2.70;;;;;;;27.40;64.28;100447.36;105799;1256;60353;-43
2023/05/27 07:46:38;;;;;;;5.00;2.60;;;;;;;27.48;62.55;100415.53;105832;1254;73846;-43
2023/05/27 07:49:06;;;;;;;3.70;2.50;;;;;;;27.31;60.64;100400.79;105701;1253;65659;-43
2023/05/27 07:51:40;;;;;;;9.50;2.70;;;;;;;27.01;60.93;100436.06;105679;1254;72730;-44
2023/05/27 07:54:10;;;;;;;6.50;2.70;;;;;;;26.81;62.60;100479.73;105700;1254;60466;-47
2023/05/27 07:56:38;;;;;;;5.10;2.60;;;;;;;26.80;61.95;100471.96;105641;1254;60355;-44
2023/05/27 07:59:05;;;;;;;7.60;2.30;;;;;;;26.65;61.40;100461.77;105691;1253;72728;-45
2023/05/27 08:01:33;;;;;;;2.70;2.10;;;;;;;26.50;57.95;100377.98;105661;1255;65445;-48
2023/05/27 08:04:01;;;;;;;3.20;2.50;;;;;;;26.40;55.18;100305.82;105668;1254;72715;-44
2023/05/27 08:07:10;;;;;;;3.00;2.70;;;;;;;26.16;54.90;100329.80;105582;1253;60527;-43
2023/05/27 08:10:10;;;;;;;4.90;2.20;;;;;;;26.07;55.54;100368.66;105440;1253;60467;-43
2023/05/27 08:13:07;;;;;;;3.70;2.00;;;;;;;26.01;55.30;100363.06;105258;1259;73803;-43
2023/05/27 08:15:54;;;;;;;10.00;2.70;;;;;;;25.93;53.98;100320.95;105716;1254;64528;-43
2023/05/27 08:18:27;;;;;;;5.60;2.50;;;;;;;25.87;53.40;100309.29;105656;1255;71527;-43
2023/05/27 08:21:05;;;;;;;5.50;2.60;;;;;;;25.89;53.80;100342.00;105675;1258;60509;-44
2023/05/27 08:23:58;;;;;;;2.50;2.20;;;;;;;25.90;53.76;100342.92;105670;1258;60351;-43
2023/05/27 08:26:45;;;;;;;10.40;2.30;;;;;;;25.85;53.55;100335.55;105721;1253;73845;-43
2023/05/27 08:29:39;;;;;;;5.20;2.50;;;;;;;25.74;53.54;100343.71;105513;1257;64132;-43
2023/05/27 08:32:19;;;;;;;4.40;2.60;;;;;;;25.66;54.33;100382.01;105655;1253;72634;-44
2023/05/27 08:34:47;;;;;;;3.20;2.80;;;;;;;25.64;54.38;100381.73;105669;1261;60541;-44
2023/05/27 08:37:15;;;;;;;7.90;2.80;;;;;;;25.56;54.32;100390.67;105671;1255;60331;-43
2023/05/27 08:39:43;;;;;;;7.30;3.00;;;;;;;25.51;55.12;100422.67;105672;1254;73854;-43
2023/05/27 08:42:22;;;;;;;7.50;2.90;;;;;;;25.49;56.01;100442.07;105646;1258;63934;-45
2023/05/27 08:44:50;;;;;;;3.90;3.30;;;;;;;25.50;56.08;100436.36;105656;1258;71603;-43
2023/05/27 08:47:18;;;;;;;8.40;2.70;;;;;;;25.53;57.30;100473.38;105634;1260;60423;-43
2023/05/27 08:49:47;;;;;;;7.60;3.20;;;;;;;25.58;57.29;100463.77;105741;1256;60348;-43
2023/05/27 08:52:17;;;;;;;9.70;3.20;;;;;;;25.57;57.11;100452.71;105808;1257;72259;-43
2023/05/27 08:54:46;;;;;;;3.50;3.00;;;;;;;25.63;56.91;100446.94;105874;1253;64468;-44
2023/05/27 08:57:13;;;;;;;3.20;2.80;;;;;;;25.80;57.25;100451.75;105791;1254;71464;-44
2023/05/27 08:59:41;;;;;;;3.40;3.10;;;;;;;26.00;56.73;100429.91;105923;1253;60643;-44
2023/05/27 09:02:11;;;;;;;9.40;2.90;;;;;;;26.20;57.19;100445.05;105692;1253;60351;-44
2023/05/27 09:04:40;;;;;;;4.30;2.90;;;;;;;26.26;57.49;100454.46;105694;1258;72721;-44
2023/05/27 09:07:08;;;;;;;3.30;2.60;;;;;;;26.21;55.90;100394.11;105928;1256;63979;-44
2023/05/27 09:09:35;;;;;;;8.90;2.60;;;;;;;26.26;55.29;100370.83;105798;1254;71457;-44
2023/05/27 09:12:03;;;;;;;10.20;2.60;;;;;;;26.47;53.95;100328.77;105769;1256;60428;-44
2023/05/27 09:14:31;;;;;;;6.40;2.70;;;;;;;26.71;52.91;100287.02;105859;1253;60345;-44
2023/05/27 09:17:05;;;;;;;3.70;2.60;;;;;;;26.87;51.98;100253.75;105847;1256;74248;-44
2023/05/27 09:19:33;;;;;;;6.40;2.30;;;;;;;26.86;52.04;100275.11;105923;1256;65185;-44
2023/05/27 09:22:00;;;;;;;11.80;8.90;;;;;;;26.90;51.46;100249.60;105768;1253;71434;-44
2023/05/27 09:24:28;;;;;;;5.20;2.60;;;;;;;26.98;51.60;100262.48;105898;1252;60418;-44
2023/05/27 09:26:55;;;;;;;22.10;16.30;;;;;;;27.09;51.12;100242.93;105815;1254;60332;-44
2023/05/27 09:29:25;;;;;;;19.10;11.00;;;;;;;27.22;50.87;100243.15;105804;1253;72586;-44
2023/05/27 09:31:56;;;;;;;5.20;4.10;;;;;;;27.34;50.95;100232.44;105812;1253;64065;-45
2023/05/27 09:34:24;;;;;;;198.80;159.70;;;;;;;27.39;50.57;100229.70;105741;1256;72470;-45
2023/05/27 09:36:51;;;;;;;11.80;8.50;;;;;;;27.36;50.69;100234.94;105771;1254;60463;-44
2023/05/27 09:39:21;;;;;;;4.10;3.10;;;;;;;27.39;50.20;100212.54;105772;1254;60364;-44
2023/05/27 09:41:56;;;;;;;5.20;2.80;;;;;;;27.45;50.40;100230.90;105793;1253;73776;-44
2023/05/27 09:44:28;;;;;;;2.50;2.30;;;;;;;27.54;49.92;100204.38;105935;1256;65269;-43
2023/05/27 09:46:57;;;;;;;6.00;2.70;;;;;;;27.30;50.27;100233.23;105722;1259;72679;-44
2023/05/27 09:49:27;;;;;;;4.40;2.30;;;;;;;27.04;50.60;100272.17;105768;1255;62116;-44
2023/05/27 09:51:55;;;;;;;4.90;2.40;;;;;;;26.86;51.57;100329.16;105809;1254;60341;-44
2023/05/27 09:54:22;;;;;;;5.80;2.20;;;;;;;26.89;52.50;100357.25;105784;1257;73792;-44
2023/05/27 09:56:50;;;;;;;12.00;2.30;;;;;;;27.06;52.71;100348.69;105787;1253;63823;-44
2023/05/27 09:59:17;;;;;;;6.10;4.90;;;;;;;27.20;52.55;100329.90;105667;1259;72678;-44
2023/05/27 10:01:45;;;;;;;4.60;3.30;;;;;;;27.34;53.83;100372.19;105762;1252;60407;-44
2023/05/27 10:04:16;;;;;;;11.10;2.50;;;;;;;27.66;52.47;100296.69;105944;1256;60349;-44
2023/05/27 10:06:48;;;;;;;8.00;2.10;;;;;;;28.01;50.80;100198.58;105782;1254;73882;-44
2023/05/27 10:09:16;;;;;;;5.00;2.00;;;;;;;28.25;47.75;100010.26;105763;1253;63550;-44
2023/05/27 10:11:43;;;;;;;2.70;2.20;;;;;;;28.35;47.35;99988.08;105759;1253;73036;-43
2023/05/27 10:14:11;;;;;;;4.90;2.90;;;;;;;28.41;47.00;99962.87;105838;1253;60522;-44
2023/05/27 10:16:40;;;;;;;3.40;2.30;;;;;;;28.46;46.85;99972.92;105742;1253;60606;-48
2023/05/27 10:19:11;;;;;;;5.90;2.30;;;;;;;28.49;46.57;99970.64;105757;1253;72628;-47
2023/05/27 10:21:42;;;;;;;2.60;1.90;;;;;;;28.52;45.47;99874.58;105637;1253;64011;-44
2023/05/27 10:24:11;;;;;;;5.40;2.40;;;;;;;28.53;47.05;100008.79;105797;1254;71456;-46
2023/05/27 10:26:43;;;;;;;4.30;2.30;;;;;;;28.73;46.50;99973.23;105753;1253;60566;-44
2023/05/27 10:29:12;;;;;;;2.90;2.40;;;;;;;28.91;44.31;99760.95;105854;1257;60339;-44
2023/05/27 10:31:48;;;;;;;3.80;2.90;;;;;;;28.78;44.63;99810.90;105808;1253;72634;-44
2023/05/27 10:34:19;;;;;;;5.40;3.10;;;;;;;28.60;44.86;99864.76;105763;1257;65234;-44
2023/05/27 10:36:47;;;;;;;2.30;2.20;;;;;;;28.45;45.11;99897.30;105760;1254;71480;-44
2023/05/27 10:39:16;;;;;;;2.40;2.30;;;;;;;28.22;45.67;99972.22;105730;1260;60530;-44
2023/05/27 10:41:51;;;;;;;6.90;2.80;;;;;;;28.18;46.35;100037.73;105827;1253;60325;-44
2023/05/27 10:44:48;;;;;;;6.80;2.40;;;;;;;28.21;46.47;100043.69;105941;1253;72598;-44
2023/05/27 10:47:16;;;;;;;8.20;2.30;;;;;;;28.23;45.57;99959.01;105719;1253;65257;-44
2023/05/27 10:49:47;;;;;;;7.20;2.20;;;;;;;28.05;45.28;99932.88;105894;1256;72613;-43
2023/05/27 10:52:18;;;;;;;9.80;3.50;;;;;;;27.92;46.51;100064.00;105791;1257;60577;-44
2023/05/27 10:54:46;;;;;;;8.50;4.80;;;;;;;28.01;46.97;100110.63;105899;1253;60412;-44
2023/05/27 10:57:14;;;;;;;4.40;2.60;;;;;;;28.07;46.54;100052.24;105765;1253;72632;-44
2023/05/27 10:59:49;;;;;;;7.20;3.60;;;;;;;27.93;45.67;99979.39;105824;1253;63959;-44
2023/05/27 11:02:17;;;;;;;9.50;3.80;;;;;;;27.73;44.93;99916.45;105799;1254;71470;-44
2023/05/27 11:04:45;;;;;;;4.40;4.00;;;;;;;27.42;45.30;99975.77;105815;1253;60425;-45
2023/05/27 11:07:13;;;;;;;8.10;5.00;;;;;;;27.20;46.23;100058.42;105725;1252;60616;-44
2023/05/27 11:09:54;;;;;;;8.00;3.40;;;;;;;27.08;46.76;100110.16;105665;1254;74268;-44
2023/05/27 11:12:23;;;;;;;7.80;2.90;;;;;;;27.04;47.13;100162.60;105803;1253;66416;-45
2023/05/27 11:14:53;;;;;;;8.40;3.10;;;;;;;27.06;47.18;100154.83;105801;1257;71352;-50
2023/05/27 11:17:21;;;;;;;4.90;3.50;;;;;;;27.08;47.22;100150.05;105798;1257;60488;-45
2023/05/27 11:19:49;;;;;;;7.30;3.30;;;;;;;27.13;48.08;100230.34;105897;1256;60380;-44
2023/05/27 11:22:18;;;;;;;7.80;2.90;;;;;;;27.25;47.93;100202.27;105803;1257;73936;-45
2023/05/27 11:25:02;;;;;;;3.70;2.60;;;;;;;27.48;47.07;100130.38;105935;1255;64361;-45
2023/05/27 11:27:35;;;;;;;4.90;2.70;;;;;;;27.80;47.54;100160.35;105921;1254;71396;-43